createdAt,value
2019-01-25T00:00:34.412Z,977.06
2019-01-25T00:01:34.385Z,977.02
2019-01-25T00:02:34.384Z,977.11
2019-01-25T00:03:34.364Z,977.04
2019-01-25T00:04:34.359Z,976.99
2019-01-25T00:05:34.346Z,977.00
2019-01-25T00:06:34.370Z,976.99
2019-01-25T00:07:34.322Z,976.98
2019-01-25T00:08:34.318Z,976.96
2019-01-25T00:09:34.303Z,976.95
2019-01-25T00:10:34.297Z,976.97
2019-01-25T00:11:34.289Z,977.03
2019-01-25T00:12:34.295Z,977.00
2019-01-25T00:13:34.263Z,977.01
2019-01-25T00:14:34.253Z,977.04
2019-01-25T00:15:34.245Z,977.12
2019-01-25T00:16:34.234Z,977.11
2019-01-25T00:17:34.224Z,977.05
2019-01-25T00:18:34.228Z,977.09
2019-01-25T00:19:34.208Z,977.03
2019-01-25T00:20:34.192Z,977.07
2019-01-25T00:21:34.176Z,977.07
2019-01-25T00:22:34.170Z,977.06
2019-01-25T00:23:34.160Z,977.10
2019-01-25T00:24:34.169Z,977.09
2019-01-25T00:25:34.138Z,977.10
2019-01-25T00:26:34.122Z,977.06
2019-01-25T00:27:34.113Z,977.09
2019-01-25T00:28:34.112Z,977.12
2019-01-25T00:29:34.096Z,977.09
2019-01-25T00:30:34.099Z,977.08
2019-01-25T00:31:34.081Z,977.09
2019-01-25T00:32:34.064Z,977.05
2019-01-25T00:33:34.064Z,977.13
2019-01-25T00:34:34.048Z,977.13
2019-01-25T00:35:34.032Z,977.15
2019-01-25T00:36:34.050Z,977.15
2019-01-25T00:37:34.019Z,977.16
2019-01-25T00:38:34.001Z,977.16
2019-01-25T00:39:33.990Z,977.12
2019-01-25T00:40:33.984Z,977.13
2019-01-25T00:41:33.974Z,977.14
2019-01-25T00:42:33.980Z,977.19
2019-01-25T00:43:33.952Z,977.18
2019-01-25T00:44:33.942Z,977.22
2019-01-25T00:45:33.936Z,977.19
2019-01-25T00:46:33.923Z,977.17
2019-01-25T00:47:33.913Z,977.22
2019-01-25T00:48:33.920Z,977.33
2019-01-25T00:49:33.888Z,977.27
2019-01-25T00:50:33.881Z,977.24
2019-01-25T00:51:33.875Z,977.33
2019-01-25T00:52:33.864Z,977.32
2019-01-25T00:53:33.852Z,977.31
2019-01-25T00:54:33.864Z,977.38
2019-01-25T00:55:33.829Z,977.28
2019-01-25T00:56:33.819Z,977.36
2019-01-25T00:57:33.810Z,977.32
2019-01-25T00:58:33.793Z,977.39
2019-01-25T00:59:33.787Z,977.31
2019-01-25T01:00:33.800Z,977.42
2019-01-25T01:01:33.765Z,977.42
2019-01-25T01:02:33.755Z,977.47
2019-01-25T01:03:33.743Z,977.38
2019-01-25T01:04:33.733Z,977.38
2019-01-25T01:05:33.726Z,977.44
2019-01-25T01:06:33.729Z,977.46
2019-01-25T01:07:33.703Z,977.41
2019-01-25T01:08:33.694Z,977.47
2019-01-25T01:09:33.684Z,977.44
2019-01-25T01:10:33.678Z,977.42
2019-01-25T01:11:33.663Z,977.43
2019-01-25T01:12:33.669Z,977.53
2019-01-25T01:13:33.643Z,977.44
2019-01-25T01:14:33.631Z,977.48
2019-01-25T01:15:33.623Z,977.50
2019-01-25T01:16:33.621Z,977.52
2019-01-25T01:17:33.602Z,977.58
2019-01-25T01:18:33.608Z,977.51
2019-01-25T01:19:33.583Z,977.50
2019-01-25T01:20:33.580Z,977.57
2019-01-25T01:21:33.557Z,977.56
2019-01-25T01:22:33.550Z,977.54
2019-01-25T01:23:33.588Z,977.59
2019-01-25T01:24:33.544Z,977.59
2019-01-25T01:25:33.519Z,977.60
2019-01-25T01:26:33.509Z,977.64
2019-01-25T01:27:33.496Z,977.62
2019-01-25T01:28:33.493Z,977.65
2019-01-25T01:29:33.478Z,977.72
2019-01-25T01:30:33.483Z,977.63
2019-01-25T01:31:33.463Z,977.74
2019-01-25T01:32:33.453Z,977.69
2019-01-25T01:33:33.433Z,977.71
2019-01-25T01:34:33.426Z,977.74
2019-01-25T01:35:33.416Z,977.77
2019-01-25T01:36:33.439Z,977.78
2019-01-25T01:37:33.394Z,977.79
2019-01-25T01:38:33.391Z,977.76
2019-01-25T01:39:33.405Z,977.77
2019-01-25T01:40:33.356Z,977.79
2019-01-25T01:41:33.359Z,977.76
2019-01-25T01:42:33.375Z,977.83
2019-01-25T01:43:33.333Z,977.81
2019-01-25T01:44:33.321Z,977.83
2019-01-25T01:45:33.312Z,977.84
2019-01-25T01:46:33.324Z,977.83
2019-01-25T01:47:33.288Z,977.81
2019-01-25T01:48:33.307Z,977.88
2019-01-25T01:49:33.269Z,977.83
2019-01-25T01:50:33.260Z,977.85
2019-01-25T01:51:33.244Z,977.85
2019-01-25T01:52:33.237Z,977.88
2019-01-25T01:53:33.237Z,977.89
2019-01-25T01:54:33.240Z,977.90
2019-01-25T01:55:33.211Z,977.96
2019-01-25T01:56:33.205Z,977.90
2019-01-25T01:57:33.186Z,977.91
2019-01-25T01:58:33.170Z,977.88
2019-01-25T01:59:33.170Z,977.85
2019-01-25T02:00:33.164Z,977.86
2019-01-25T02:01:33.144Z,977.87
2019-01-25T02:02:33.128Z,977.87
2019-01-25T02:03:33.122Z,977.89
2019-01-25T02:04:33.119Z,977.86
2019-01-25T02:05:33.109Z,977.89
2019-01-25T02:06:33.125Z,977.86
2019-01-25T02:07:33.080Z,977.82
2019-01-25T02:08:33.080Z,977.84
2019-01-25T02:09:33.059Z,977.82
2019-01-25T02:10:33.050Z,977.78
2019-01-25T02:11:33.040Z,977.82
2019-01-25T02:12:33.059Z,977.89
2019-01-25T02:13:33.024Z,977.83
2019-01-25T02:14:33.018Z,977.85
2019-01-25T02:15:33.001Z,977.94
2019-01-25T02:16:32.993Z,977.86
2019-01-25T02:17:32.976Z,977.88
2019-01-25T02:18:32.989Z,977.87
2019-01-25T02:19:32.963Z,977.92
2019-01-25T02:20:32.948Z,977.87
2019-01-25T02:21:32.935Z,977.91
2019-01-25T02:22:32.930Z,977.84
2019-01-25T02:23:32.918Z,977.82
2019-01-25T02:24:32.921Z,977.82
2019-01-25T02:25:32.899Z,977.81
2019-01-25T02:26:32.886Z,977.82
2019-01-25T02:27:32.877Z,977.84
2019-01-25T02:28:32.871Z,977.87
2019-01-25T02:29:32.896Z,977.84
2019-01-25T02:30:32.871Z,977.80
2019-01-25T02:31:32.836Z,977.80
2019-01-25T02:32:32.832Z,977.85
2019-01-25T02:33:32.814Z,977.79
2019-01-25T02:34:32.819Z,977.84
2019-01-25T02:35:32.797Z,977.83
2019-01-25T02:36:32.811Z,977.81
2019-01-25T02:37:32.769Z,977.85
2019-01-25T02:38:32.766Z,977.92
2019-01-25T02:39:32.761Z,977.84
2019-01-25T02:40:38.705Z,977.85
2019-01-25T02:41:33.760Z,977.84
2019-01-25T02:42:33.306Z,977.85
2019-01-25T02:43:32.716Z,977.91
2019-01-25T02:44:32.701Z,977.89
2019-01-25T02:45:32.698Z,977.90
2019-01-25T02:46:32.695Z,977.85
2019-01-25T02:47:32.718Z,977.88
2019-01-25T02:48:32.659Z,977.85
2019-01-25T02:49:32.653Z,977.89
2019-01-25T02:50:32.637Z,977.85
2019-01-25T02:51:32.639Z,977.84
2019-01-25T02:52:32.621Z,977.85
2019-01-25T02:53:32.619Z,977.84
2019-01-25T02:54:32.598Z,977.91
2019-01-25T02:55:32.588Z,977.88
2019-01-25T02:56:32.579Z,977.87
2019-01-25T02:57:32.573Z,977.82
2019-01-25T02:58:32.556Z,977.84
2019-01-25T02:59:32.558Z,977.86
2019-01-25T03:00:32.546Z,977.86
2019-01-25T03:01:32.578Z,977.85
2019-01-25T03:02:32.516Z,977.84
2019-01-25T03:03:32.508Z,977.89
2019-01-25T03:04:32.494Z,977.83
2019-01-25T03:05:32.498Z,977.86
2019-01-25T03:06:32.473Z,977.82
2019-01-25T03:07:32.464Z,977.86
2019-01-25T03:08:32.454Z,977.85
2019-01-25T03:09:32.448Z,977.81
2019-01-25T03:10:32.429Z,977.83
2019-01-25T03:11:32.427Z,977.74
2019-01-25T03:12:32.407Z,977.79
2019-01-25T03:13:32.410Z,977.64
2019-01-25T03:14:32.385Z,977.70
2019-01-25T03:15:32.385Z,977.75
2019-01-25T03:16:32.370Z,977.71
2019-01-25T03:17:32.403Z,977.66
2019-01-25T03:18:32.341Z,977.71
2019-01-25T03:19:32.332Z,977.64
2019-01-25T03:20:32.335Z,977.67
2019-01-25T03:21:32.322Z,977.67
2019-01-25T03:22:32.305Z,977.63
2019-01-25T03:23:32.315Z,977.68
2019-01-25T03:24:32.283Z,977.75
2019-01-25T03:25:32.269Z,977.70
2019-01-25T03:26:32.262Z,977.77
2019-01-25T03:27:32.254Z,977.74
2019-01-25T03:28:32.246Z,977.66
2019-01-25T03:29:32.243Z,977.70
2019-01-25T03:30:32.306Z,977.73
2019-01-25T03:31:32.212Z,977.75
2019-01-25T03:32:32.209Z,977.70
2019-01-25T03:33:32.189Z,977.74
2019-01-25T03:34:32.182Z,977.74
2019-01-25T03:35:32.189Z,977.71
2019-01-25T03:36:32.164Z,977.69
2019-01-25T03:37:32.147Z,977.68
2019-01-25T03:38:32.173Z,977.70
2019-01-25T03:39:32.129Z,977.68
2019-01-25T03:40:32.124Z,977.70
2019-01-25T03:41:32.115Z,977.74
2019-01-25T03:42:32.093Z,977.72
2019-01-25T03:43:32.080Z,977.76
2019-01-25T03:44:32.073Z,977.73
2019-01-25T03:45:32.066Z,977.72
2019-01-25T03:46:32.056Z,977.69
2019-01-25T03:47:32.071Z,977.72
2019-01-25T03:48:32.031Z,977.72
2019-01-25T03:49:32.031Z,977.72
2019-01-25T03:50:32.005Z,977.74
2019-01-25T03:51:39.042Z,977.77
2019-01-25T03:52:31.989Z,977.82
2019-01-25T03:53:31.991Z,977.76
2019-01-25T03:54:31.973Z,977.77
2019-01-25T03:55:31.967Z,977.80
2019-01-25T03:56:31.945Z,977.76
2019-01-25T03:57:31.938Z,977.84
2019-01-25T03:58:31.924Z,977.79
2019-01-25T03:59:31.938Z,977.86
2019-01-25T04:00:31.903Z,977.79
2019-01-25T04:01:31.893Z,977.85
2019-01-25T04:02:31.890Z,977.90
2019-01-25T04:03:31.877Z,977.85
2019-01-25T04:04:31.867Z,977.86
2019-01-25T04:05:31.885Z,977.81
2019-01-25T04:06:31.844Z,977.91
2019-01-25T04:07:31.835Z,977.86
2019-01-25T04:08:31.816Z,977.82
2019-01-25T04:09:31.812Z,977.81
2019-01-25T04:10:31.798Z,977.78
2019-01-25T04:11:31.825Z,977.78
2019-01-25T04:12:31.781Z,977.78
2019-01-25T04:13:31.772Z,977.79
2019-01-25T04:14:31.762Z,977.85
2019-01-25T04:15:31.744Z,977.86
2019-01-25T04:16:31.737Z,977.83
2019-01-25T04:17:31.755Z,977.86
2019-01-25T04:18:31.750Z,977.88
2019-01-25T04:19:31.708Z,977.89
2019-01-25T04:20:31.700Z,977.86
2019-01-25T04:21:31.690Z,977.96
2019-01-25T04:22:31.683Z,977.97
2019-01-25T04:23:31.691Z,978.04
2019-01-25T04:24:31.659Z,978.07
2019-01-25T04:25:31.649Z,978.09
2019-01-25T04:26:31.638Z,978.05
2019-01-25T04:27:31.626Z,978.09
2019-01-25T04:28:31.621Z,978.04
2019-01-25T04:29:31.623Z,977.97
2019-01-25T04:30:32.824Z,978.09
2019-01-25T04:31:31.590Z,978.08
2019-01-25T04:32:31.572Z,978.10
2019-01-25T04:33:31.568Z,978.19
2019-01-25T04:34:31.557Z,978.06
2019-01-25T04:35:31.566Z,978.15
2019-01-25T04:36:31.539Z,978.16
2019-01-25T04:37:31.528Z,978.15
2019-01-25T04:38:31.511Z,978.12
2019-01-25T04:39:31.506Z,978.13
2019-01-25T04:40:31.495Z,978.10
2019-01-25T04:41:31.500Z,978.01
2019-01-25T04:42:31.473Z,978.00
2019-01-25T04:43:31.462Z,978.12
2019-01-25T04:44:31.458Z,977.99
2019-01-25T04:45:31.446Z,977.98
2019-01-25T04:46:31.431Z,978.06
2019-01-25T04:47:31.449Z,978.11
2019-01-25T04:48:31.414Z,978.09
2019-01-25T04:49:31.401Z,978.14
2019-01-25T04:50:31.388Z,978.21
2019-01-25T04:51:31.379Z,978.14
2019-01-25T04:52:31.371Z,978.11
2019-01-25T04:53:31.380Z,978.13
2019-01-25T04:54:31.358Z,978.18
2019-01-25T04:55:31.343Z,978.17
2019-01-25T04:56:31.333Z,978.14
2019-01-25T04:57:31.327Z,978.15
2019-01-25T04:58:31.314Z,978.11
2019-01-25T04:59:31.324Z,978.09
2019-01-25T05:00:31.294Z,978.13
2019-01-25T05:01:31.284Z,978.12
2019-01-25T05:02:31.279Z,978.10
2019-01-25T05:03:31.258Z,978.19
2019-01-25T05:04:31.248Z,978.18
2019-01-25T05:05:31.300Z,978.15
2019-01-25T05:06:31.229Z,978.19
2019-01-25T05:07:31.225Z,978.16
2019-01-25T05:08:31.212Z,978.20
2019-01-25T05:09:31.197Z,978.19
2019-01-25T05:10:31.200Z,978.25
2019-01-25T05:11:31.234Z,978.21
2019-01-25T05:12:31.192Z,978.22
2019-01-25T05:13:31.774Z,978.29
2019-01-25T05:14:31.152Z,978.27
2019-01-25T05:15:31.140Z,978.19
2019-01-25T05:16:31.130Z,978.30
2019-01-25T05:17:31.165Z,978.32
2019-01-25T05:18:31.111Z,978.29
2019-01-25T05:19:31.101Z,978.34
2019-01-25T05:20:31.117Z,978.30
2019-01-25T05:21:31.101Z,978.34
2019-01-25T05:22:31.069Z,978.29
2019-01-25T05:23:31.102Z,978.36
2019-01-25T05:24:31.076Z,978.31
2019-01-25T05:25:31.046Z,978.34
2019-01-25T05:26:31.032Z,978.33
2019-01-25T05:27:31.017Z,978.36
2019-01-25T05:28:31.026Z,978.35
2019-01-25T05:29:31.057Z,978.35
2019-01-25T05:30:30.987Z,978.37
2019-01-25T05:31:30.976Z,978.34
2019-01-25T05:32:30.966Z,978.33
2019-01-25T05:33:30.952Z,978.28
2019-01-25T05:34:30.951Z,978.33
2019-01-25T05:35:30.982Z,978.29
2019-01-25T05:36:30.926Z,978.21
2019-01-25T05:37:30.910Z,978.27
2019-01-25T05:38:30.903Z,978.25
2019-01-25T05:39:30.893Z,978.28
2019-01-25T05:40:30.883Z,978.32
2019-01-25T05:41:30.921Z,978.27
2019-01-25T05:42:30.862Z,978.32
2019-01-25T05:43:30.855Z,978.36
2019-01-25T05:44:30.839Z,978.35
2019-01-25T05:45:30.831Z,978.38
2019-01-25T05:46:30.823Z,978.31
2019-01-25T05:47:30.856Z,978.33
2019-01-25T05:48:30.806Z,978.39
2019-01-25T05:49:30.789Z,978.44
2019-01-25T05:50:30.781Z,978.48
2019-01-25T05:51:33.684Z,978.44
2019-01-25T05:52:30.756Z,978.51
2019-01-25T05:53:31.514Z,978.48
2019-01-25T05:54:30.736Z,978.42
2019-01-25T05:55:30.742Z,978.43
2019-01-25T05:56:30.714Z,978.46
2019-01-25T05:57:30.715Z,978.45
2019-01-25T05:58:30.701Z,978.45
2019-01-25T05:59:30.737Z,978.50
2019-01-25T06:00:30.673Z,978.47
2019-01-25T06:01:30.672Z,978.42
2019-01-25T06:02:30.658Z,978.46
2019-01-25T06:03:30.647Z,978.47
2019-01-25T06:04:30.633Z,978.47
2019-01-25T06:05:30.678Z,978.49
2019-01-25T06:06:30.612Z,978.47
2019-01-25T06:07:30.611Z,978.44
2019-01-25T06:08:30.654Z,978.51
2019-01-25T06:09:30.587Z,978.54
2019-01-25T06:10:30.578Z,978.48
2019-01-25T06:11:35.436Z,978.43
2019-01-25T06:12:31.551Z,978.58
2019-01-25T06:13:30.548Z,978.54
2019-01-25T06:14:30.529Z,978.48
2019-01-25T06:15:30.526Z,978.55
2019-01-25T06:16:30.513Z,978.53
2019-01-25T06:17:30.559Z,978.59
2019-01-25T06:18:30.498Z,978.60
2019-01-25T06:19:30.504Z,978.60
2019-01-25T06:20:30.503Z,978.67
2019-01-25T06:21:30.466Z,978.63
2019-01-25T06:22:30.457Z,978.64
2019-01-25T06:23:30.503Z,978.69
2019-01-25T06:24:30.440Z,978.73
2019-01-25T06:25:30.425Z,978.71
2019-01-25T06:26:30.418Z,978.70
2019-01-25T06:27:30.405Z,978.69
2019-01-25T06:28:30.393Z,978.64
2019-01-25T06:29:30.443Z,978.58
2019-01-25T06:30:30.366Z,978.68
2019-01-25T06:31:30.363Z,978.70
2019-01-25T06:32:30.350Z,978.71
2019-01-25T06:33:30.346Z,978.69
2019-01-25T06:34:30.333Z,978.66
2019-01-25T06:35:30.360Z,978.66
2019-01-25T06:36:30.316Z,978.60
2019-01-25T06:37:30.305Z,978.61
2019-01-25T06:38:30.289Z,978.64
2019-01-25T06:39:30.318Z,978.65
2019-01-25T06:40:30.277Z,978.60
2019-01-25T06:41:30.305Z,978.66
2019-01-25T06:42:30.244Z,978.68
2019-01-25T06:43:30.243Z,978.62
2019-01-25T06:44:30.224Z,978.79
2019-01-25T06:45:30.223Z,978.77
2019-01-25T06:46:30.202Z,978.84
2019-01-25T06:47:30.250Z,978.83
2019-01-25T06:48:30.186Z,978.89
2019-01-25T06:49:30.173Z,978.95
2019-01-25T06:50:30.166Z,978.97
2019-01-25T06:51:30.157Z,978.98
2019-01-25T06:52:30.144Z,978.97
2019-01-25T06:53:30.182Z,978.95
2019-01-25T06:54:30.119Z,978.99
2019-01-25T06:55:30.116Z,978.95
2019-01-25T06:56:30.102Z,978.99
2019-01-25T06:57:30.093Z,979.00
2019-01-25T06:58:30.084Z,979.03
2019-01-25T06:59:30.122Z,979.00
2019-01-25T07:00:30.067Z,979.00
2019-01-25T07:01:30.050Z,978.93
2019-01-25T07:02:30.043Z,978.93
2019-01-25T07:03:30.041Z,978.97
2019-01-25T07:04:30.021Z,978.94
2019-01-25T07:05:30.070Z,979.02
2019-01-25T07:06:29.998Z,978.98
2019-01-25T07:07:29.992Z,978.98
2019-01-25T07:08:29.987Z,979.04
2019-01-25T07:09:29.970Z,979.08
2019-01-25T07:10:29.962Z,979.05
2019-01-25T07:11:29.998Z,979.12
2019-01-25T07:12:29.947Z,979.08
2019-01-25T07:13:29.934Z,979.10
2019-01-25T07:14:29.921Z,979.09
2019-01-25T07:15:29.909Z,979.13
2019-01-25T07:16:29.899Z,979.04
2019-01-25T07:17:29.935Z,979.12
2019-01-25T07:18:29.880Z,979.13
2019-01-25T07:19:29.876Z,979.12
2019-01-25T07:20:29.863Z,979.23
2019-01-25T07:21:29.845Z,979.18
2019-01-25T07:22:29.837Z,979.19
2019-01-25T07:23:29.880Z,979.15
2019-01-25T07:24:29.822Z,979.18
2019-01-25T07:25:29.811Z,979.20
2019-01-25T07:26:29.799Z,979.20
2019-01-25T07:27:29.786Z,979.25
2019-01-25T07:28:29.782Z,979.29
2019-01-25T07:29:29.812Z,979.27
2019-01-25T07:30:29.773Z,979.30
2019-01-25T07:31:29.890Z,979.33
2019-01-25T07:32:29.739Z,979.37
2019-01-25T07:33:29.723Z,979.31
2019-01-25T07:34:29.723Z,979.37
2019-01-25T07:35:29.772Z,979.27
2019-01-25T07:36:29.852Z,979.33
2019-01-25T07:37:29.725Z,979.33
2019-01-25T07:38:29.708Z,979.34
2019-01-25T07:39:29.923Z,979.31
2019-01-25T07:40:29.670Z,979.32
2019-01-25T07:41:29.719Z,979.30
2019-01-25T07:42:29.634Z,979.34
2019-01-25T07:43:29.626Z,979.48
2019-01-25T07:44:29.615Z,979.46
2019-01-25T07:45:29.604Z,979.44
2019-01-25T07:46:29.597Z,979.52
2019-01-25T07:47:29.670Z,979.55
2019-01-25T07:48:29.580Z,979.63
2019-01-25T07:49:29.567Z,979.62
2019-01-25T07:50:29.557Z,979.60
2019-01-25T07:51:29.544Z,979.55
2019-01-25T07:52:29.530Z,979.63
2019-01-25T07:53:29.624Z,979.57
2019-01-25T07:54:29.706Z,979.57
2019-01-25T07:55:29.504Z,979.64
2019-01-25T07:56:29.518Z,979.64
2019-01-25T07:57:29.482Z,979.58
2019-01-25T07:58:29.513Z,979.56
2019-01-25T07:59:29.514Z,979.60
2019-01-25T08:00:29.465Z,979.61
2019-01-25T08:01:29.445Z,979.78
2019-01-25T08:02:29.433Z,979.70
2019-01-25T08:03:29.433Z,979.72
2019-01-25T08:04:29.434Z,979.88
2019-01-25T08:05:29.450Z,979.83
2019-01-25T08:06:29.421Z,979.94
2019-01-25T08:07:29.386Z,979.87
2019-01-25T08:08:29.409Z,979.84
2019-01-25T08:09:29.370Z,979.81
2019-01-25T08:10:29.371Z,979.88
2019-01-25T08:11:29.405Z,979.92
2019-01-25T08:12:29.404Z,979.85
2019-01-25T08:13:29.321Z,979.89
2019-01-25T08:14:29.312Z,979.85
2019-01-25T08:15:29.325Z,979.83
2019-01-25T08:16:29.314Z,979.92
2019-01-25T08:17:29.334Z,979.92
2019-01-25T08:18:29.270Z,979.87
2019-01-25T08:19:29.257Z,979.94
2019-01-25T08:20:29.300Z,979.91
2019-01-25T08:21:29.235Z,979.95
2019-01-25T08:22:29.225Z,979.93
2019-01-25T08:23:29.273Z,979.94
2019-01-25T08:24:29.222Z,979.87
2019-01-25T08:25:29.209Z,979.91
2019-01-25T08:26:29.199Z,979.94
2019-01-25T08:27:29.177Z,979.87
2019-01-25T08:28:29.172Z,979.95
2019-01-25T08:29:29.233Z,979.89
2019-01-25T08:30:29.159Z,979.83
2019-01-25T08:31:29.138Z,979.85
2019-01-25T08:32:29.165Z,979.85
2019-01-25T08:33:29.116Z,979.81
2019-01-25T08:34:29.103Z,979.81
2019-01-25T08:35:29.188Z,979.86
2019-01-25T08:36:29.081Z,979.86
2019-01-25T08:37:29.079Z,979.94
2019-01-25T08:38:29.068Z,979.93
2019-01-25T08:39:29.065Z,980.00
2019-01-25T08:40:29.044Z,980.03
2019-01-25T08:41:29.084Z,980.07
2019-01-25T08:42:29.026Z,980.00
2019-01-25T08:43:29.014Z,980.02
2019-01-25T08:44:29.220Z,980.00
2019-01-25T08:45:29.018Z,979.99
2019-01-25T08:46:29.065Z,980.07
2019-01-25T08:47:29.029Z,980.00
2019-01-25T08:48:29.249Z,980.04
2019-01-25T08:49:28.993Z,980.11
2019-01-25T08:50:28.962Z,979.99
2019-01-25T08:51:28.963Z,980.07
2019-01-25T08:52:28.940Z,980.10
2019-01-25T08:53:28.992Z,980.13
2019-01-25T08:54:28.897Z,980.06
2019-01-25T08:55:28.927Z,980.14
2019-01-25T08:56:28.871Z,980.22
2019-01-25T08:57:29.043Z,980.19
2019-01-25T08:58:28.873Z,980.09
2019-01-25T08:59:28.893Z,980.16
2019-01-25T09:00:28.836Z,980.09
2019-01-25T09:01:28.827Z,980.10
2019-01-25T09:02:28.814Z,980.05
2019-01-25T09:03:28.804Z,980.03
2019-01-25T09:04:28.795Z,980.10
2019-01-25T09:05:28.831Z,980.07
2019-01-25T09:06:28.779Z,980.05
2019-01-25T09:07:28.764Z,980.11
2019-01-25T09:08:28.754Z,980.08
2019-01-25T09:09:28.743Z,980.13
2019-01-25T09:10:28.732Z,980.10
2019-01-25T09:11:28.832Z,980.15
2019-01-25T09:12:28.711Z,980.16
2019-01-25T09:13:28.701Z,980.14
2019-01-25T09:14:28.690Z,980.15
2019-01-25T09:15:28.679Z,980.15
2019-01-25T09:16:28.676Z,980.14
2019-01-25T09:17:28.711Z,980.14
2019-01-25T09:18:28.651Z,980.18
2019-01-25T09:19:28.638Z,980.20
2019-01-25T09:20:28.633Z,980.14
2019-01-25T09:21:28.618Z,980.13
2019-01-25T09:22:28.606Z,980.14
2019-01-25T09:23:28.638Z,980.11
2019-01-25T09:24:28.583Z,980.15
2019-01-25T09:25:28.580Z,980.14
2019-01-25T09:26:28.560Z,980.12
2019-01-25T09:27:28.551Z,980.09
2019-01-25T09:28:28.544Z,980.15
2019-01-25T09:29:28.589Z,980.15
2019-01-25T09:30:28.519Z,980.24
2019-01-25T09:31:28.512Z,980.25
2019-01-25T09:32:28.506Z,980.17
2019-01-25T09:33:28.497Z,980.20
2019-01-25T09:34:28.481Z,980.15
2019-01-25T09:35:28.522Z,980.18
2019-01-25T09:36:28.461Z,980.16
2019-01-25T09:37:28.455Z,980.18
2019-01-25T09:38:28.439Z,980.16
2019-01-25T09:39:28.483Z,980.22
2019-01-25T09:40:28.416Z,980.20
2019-01-25T09:41:28.455Z,980.23
2019-01-25T09:42:31.147Z,980.27
2019-01-25T09:43:28.388Z,980.27
2019-01-25T09:44:28.375Z,980.23
2019-01-25T09:45:28.366Z,980.24
2019-01-25T09:46:28.357Z,980.26
2019-01-25T09:47:28.397Z,980.21
2019-01-25T09:48:28.331Z,980.25
2019-01-25T09:49:28.326Z,980.23
2019-01-25T09:50:28.319Z,980.24
2019-01-25T09:51:28.301Z,980.23
2019-01-25T09:52:35.384Z,980.22
2019-01-25T09:53:28.276Z,980.14
2019-01-25T09:54:28.270Z,980.16
2019-01-25T09:55:28.258Z,980.17
2019-01-25T09:56:28.252Z,980.13
2019-01-25T09:57:28.250Z,980.14
2019-01-25T09:58:28.277Z,980.17
2019-01-25T09:59:28.213Z,980.21
2019-01-25T10:00:28.207Z,980.31
2019-01-25T10:01:28.194Z,980.26
2019-01-25T10:02:28.191Z,980.29
2019-01-25T10:03:28.175Z,980.31
2019-01-25T10:04:28.219Z,980.36
2019-01-25T10:05:28.162Z,980.39
2019-01-25T10:06:28.142Z,980.40
2019-01-25T10:07:28.146Z,980.37
2019-01-25T10:08:28.130Z,980.33
2019-01-25T10:09:28.114Z,980.35
2019-01-25T10:10:28.153Z,980.39
2019-01-25T10:11:28.088Z,980.41
2019-01-25T10:12:28.075Z,980.38
2019-01-25T10:13:28.067Z,980.44
2019-01-25T10:14:28.057Z,980.36
2019-01-25T10:15:28.051Z,980.37
2019-01-25T10:16:28.085Z,980.36
2019-01-25T10:17:28.025Z,980.31
2019-01-25T10:18:28.013Z,980.40
2019-01-25T10:19:28.006Z,980.34
2019-01-25T10:20:27.993Z,980.40
2019-01-25T10:21:27.983Z,980.39
2019-01-25T10:22:28.025Z,980.39
2019-01-25T10:23:27.958Z,980.39
2019-01-25T10:24:27.942Z,980.40
2019-01-25T10:25:27.935Z,980.41
2019-01-25T10:26:27.930Z,980.34
2019-01-25T10:27:27.916Z,980.47
2019-01-25T10:28:27.927Z,980.47
2019-01-25T10:29:27.894Z,980.46
2019-01-25T10:30:27.890Z,980.44
2019-01-25T10:31:27.876Z,980.40
2019-01-25T10:32:27.864Z,980.43
2019-01-25T10:33:27.857Z,980.54
2019-01-25T10:34:27.865Z,980.49
2019-01-25T10:35:27.829Z,980.38
2019-01-25T10:36:27.826Z,980.49
2019-01-25T10:37:27.812Z,980.47
2019-01-25T10:38:27.803Z,980.47
2019-01-25T10:39:27.804Z,980.50
2019-01-25T10:40:27.832Z,980.46
2019-01-25T10:41:27.773Z,980.41
2019-01-25T10:42:27.755Z,980.42
2019-01-25T10:43:27.747Z,980.40
2019-01-25T10:44:27.745Z,980.44
2019-01-25T10:45:27.730Z,980.43
2019-01-25T10:46:27.765Z,980.43
2019-01-25T10:47:27.714Z,980.47
2019-01-25T10:48:27.743Z,980.40
2019-01-25T10:49:27.685Z,980.42
2019-01-25T10:50:27.704Z,980.42
2019-01-25T10:51:27.701Z,980.43
2019-01-25T10:52:27.710Z,980.45
2019-01-25T10:53:27.646Z,980.39
2019-01-25T10:54:27.641Z,980.40
2019-01-25T10:55:27.641Z,980.39
2019-01-25T10:56:27.619Z,980.35
2019-01-25T10:57:27.613Z,980.38
2019-01-25T10:58:27.641Z,980.37
2019-01-25T10:59:27.580Z,980.32
2019-01-25T11:00:27.568Z,980.34
2019-01-25T11:01:27.555Z,980.36
2019-01-25T11:02:27.545Z,980.25
2019-01-25T11:03:27.550Z,980.23
2019-01-25T11:04:27.574Z,980.27
2019-01-25T11:05:27.520Z,980.27
2019-01-25T11:06:27.507Z,980.29
2019-01-25T11:07:27.495Z,980.21
2019-01-25T11:08:27.487Z,980.22
2019-01-25T11:09:27.471Z,980.17
2019-01-25T11:10:27.486Z,980.16
2019-01-25T11:11:27.448Z,980.25
2019-01-25T11:12:27.443Z,980.27
2019-01-25T11:13:27.432Z,980.22
2019-01-25T11:14:27.423Z,980.19
2019-01-25T11:15:27.408Z,980.22
2019-01-25T11:16:27.416Z,980.21
2019-01-25T11:17:27.388Z,980.18
2019-01-25T11:18:27.375Z,980.26
2019-01-25T11:19:27.369Z,980.22
2019-01-25T11:20:27.358Z,980.12
2019-01-25T11:21:27.343Z,979.99
2019-01-25T11:22:27.352Z,979.99
2019-01-25T11:23:27.333Z,980.03
2019-01-25T11:24:27.315Z,980.04
2019-01-25T11:25:27.301Z,979.92
2019-01-25T11:26:27.298Z,979.97
2019-01-25T11:27:27.282Z,979.95
2019-01-25T11:28:27.291Z,979.94
2019-01-25T11:29:27.258Z,979.92
2019-01-25T11:30:27.251Z,979.92
2019-01-25T11:31:27.241Z,979.95
2019-01-25T11:32:27.236Z,979.88
2019-01-25T11:33:27.217Z,979.93
2019-01-25T11:34:27.223Z,979.82
2019-01-25T11:35:27.201Z,979.86
2019-01-25T11:36:27.188Z,979.87
2019-01-25T11:37:27.175Z,979.87
2019-01-25T11:38:27.170Z,979.91
2019-01-25T11:39:27.147Z,979.77
2019-01-25T11:40:27.165Z,979.77
2019-01-25T11:41:27.134Z,979.73
2019-01-25T11:42:27.141Z,979.71
2019-01-25T11:43:27.118Z,979.69
2019-01-25T11:44:27.105Z,979.72
2019-01-25T11:45:27.091Z,979.69
2019-01-25T11:46:27.117Z,979.66
2019-01-25T11:47:27.066Z,979.69
2019-01-25T11:48:27.060Z,979.65
2019-01-25T11:49:27.048Z,979.66
2019-01-25T11:50:27.044Z,979.66
2019-01-25T11:51:27.033Z,979.60
2019-01-25T11:52:27.031Z,979.68
2019-01-25T11:53:27.005Z,979.70
2019-01-25T11:54:26.989Z,979.67
2019-01-25T11:55:26.986Z,979.64
2019-01-25T11:56:26.970Z,979.66
2019-01-25T11:57:26.960Z,979.67
2019-01-25T11:58:26.976Z,979.69
2019-01-25T11:59:26.942Z,979.60
2019-01-25T12:00:26.947Z,979.60
2019-01-25T12:01:26.918Z,979.59
2019-01-25T12:02:26.910Z,979.60
2019-01-25T12:03:26.896Z,979.63
2019-01-25T12:04:26.908Z,979.59
2019-01-25T12:05:26.935Z,979.64
2019-01-25T12:06:26.864Z,979.59
2019-01-25T12:07:26.863Z,979.65
2019-01-25T12:08:26.848Z,979.66
2019-01-25T12:09:26.835Z,979.60
2019-01-25T12:10:26.845Z,979.61
2019-01-25T12:11:26.819Z,979.63
2019-01-25T12:12:26.806Z,979.58
2019-01-25T12:13:26.806Z,979.69
2019-01-25T12:14:26.788Z,979.58
2019-01-25T12:15:26.774Z,979.64
2019-01-25T12:16:26.781Z,979.63
2019-01-25T12:17:26.752Z,979.69
2019-01-25T12:18:26.762Z,979.69
2019-01-25T12:19:26.730Z,979.63
2019-01-25T12:20:26.716Z,979.68
2019-01-25T12:21:26.710Z,979.68
2019-01-25T12:22:26.763Z,979.67
2019-01-25T12:23:26.699Z,979.64
2019-01-25T12:24:26.679Z,979.63
2019-01-25T12:25:26.671Z,979.63
2019-01-25T12:26:26.661Z,979.59
2019-01-25T12:27:26.645Z,979.58
2019-01-25T12:28:26.654Z,979.59